Nearby METAR Reports

 

KLOT - Romeoville/Chi, Illinois, USA
Distance from station: N 3mi, 5km
Updated: Tue, 27-Jun-2017 8:15pm CDT
Clear
Clear
 Wind from SSW
Wind: SSW 7 mph , 11 km/h
Temperature: 70°F , 21°C
Dew Point: 43°F , 6°C
Humidity: 38%
Barometer: 30.03 inHg , 1016.9 hPa
Clouds: Clear
Visibility: 7 miles , 11 km
2017/06/28 01:15 KLOT 280115Z AUTO 21006KT 7SM CLR 21/06 A3003 RMK AO2 T02050055
KJOT - Joliet, Illinois, USA
Distance from station: WSW 5mi, 7km
Updated: Tue, 27-Jun-2017 8:35pm CDT
Clear
Clear
 Wind from calm
Wind: Calm
Temperature: 66°F , 19°C
Dew Point: 50°F , 10°C
Humidity: 56%
Barometer: 30.03 inHg , 1016.9 hPa
Clouds: Clear
Visibility: 10 miles , 16 km
2017/06/28 01:35 KJOT 280135Z AUTO 00000KT 10SM CLR 19/10 A3003 RMK AO2 T01870103
 
KC09 - Morris-Washburn, Illinois, USA
Distance from station: WSW 18mi, 29km
Updated: Tue, 27-Jun-2017 8:15pm CDT
Clear
Clear
 Wind from S
Wind: S 3 mph , 6 km/h
Temperature: 68°F , 20°C
Dew Point: 46°F , 8°C
Humidity: 46%
Barometer: 30.02 inHg , 1016.6 hPa
Clouds: Clear
Visibility: 10 miles , 16 km
2017/06/28 01:15 KC09 280115Z AUTO 17003KT 10SM CLR 20/08 A3002 RMK AO2 T02010075
KARR - Chicago/Aurora, Illinois, USA
Distance from station: NW 24mi, 39km
Updated: Tue, 27-Jun-2017 7:52pm CDT
Clear
Clear
 Wind from S
Wind: S 6 mph , 9 km/h
Temperature: 70°F , 21°C
Dew Point: 46°F , 8°C
Humidity: 43%
Barometer: 30.03 inHg , 1016.9 hPa
Clouds: Clear
Visibility: 10 miles , 16 km
2017/06/28 00:52 KARR 280052Z 19005KT 10SM CLR 21/08 A3003 RMK AO2 SLP167 T02060078
 
KMDW - Chicago, Illinois, USA
Distance from station: NE 25mi, 39km
Updated: Tue, 27-Jun-2017 7:53pm CDT
Mostly cloudy
Mostly cloudy
 Wind from SSW
Wind: SSW 10 mph , 17 km/h
Temperature: 73°F , 23°C
Dew Point: 46°F , 8°C
Humidity: 38%
Barometer: 30.02 inHg , 1016.6 hPa
Clouds: Mostly cloudy
Visibility: 10 miles , 16 km
Cloud details: Mostly cloudy 25000 ft
2017/06/28 00:53 KMDW 280053Z 20009KT 10SM BKN250 23/08 A3002 RMK AO2 SLP160 T02280078
KDPA - Chicago/Dupage, Illinois, USA
Distance from station: NNW 26mi, 42km
Updated: Tue, 27-Jun-2017 7:52pm CDT
Clear
Clear
 Wind from SSW
Wind: SSW 7 mph , 11 km/h
Temperature: 70°F , 21°C
Dew Point: 48°F , 9°C
Humidity: 46%
Barometer: 30.02 inHg , 1016.6 hPa
Clouds: Clear
Visibility: 10 miles , 16 km
2017/06/28 00:52 KDPA 280052Z 21006KT 10SM CLR 21/09 A3002 RMK AO2 SLP161 T02060089
 
KIGQ - Chicago/Lansing, Illinois, USA
Distance from station: E 30mi, 48km
Updated: Tue, 27-Jun-2017 8:35pm CDT
Clear
Clear
 Wind from SSW
Wind: SSW 6 mph , 9 km/h
Temperature: 66°F , 19°C
Dew Point: 45°F , 7°C
Humidity: 46%
Barometer: 30.03 inHg , 1016.9 hPa
Clouds: Clear
Visibility: 10 miles , 16 km
2017/06/28 01:35 KIGQ 280135Z AUTO 21005KT 10SM CLR 19/07 A3003 RMK AO2 T01930069
KORD - Chicago O'hare, Illinois, USA
Distance from station: NNE 31mi, 50km
Updated: Tue, 27-Jun-2017 8:51pm CDT
Mostly cloudy
Mostly cloudy
 Wind from SSW
Wind: SSW 7 mph , 11 km/h
Temperature: 70°F , 21°C
Dew Point: 45°F , 7°C
Humidity: 40%
Barometer: 30.01 inHg , 1016.3 hPa
Clouds: Mostly cloudy
Visibility: 10 miles , 16 km
Cloud details: Mostly cloudy 25000 ft
2017/06/28 01:51 KORD 280151Z 20006KT 10SM BKN250 21/07 A3001 RMK AO2 SLP160 T02110067
 
KGYY - Gary Regional, Indiana, USA
Distance from station: E 36mi, 58km
Updated: Tue, 27-Jun-2017 8:45pm CDT
Partly cloudy
Partly cloudy
 Wind from calm
Wind: Calm
Temperature: 64°F , 18°C
Dew Point: 48°F , 9°C
Humidity: 56%
Barometer: 30.04 inHg , 1017.3 hPa
Clouds: Partly cloudy
Visibility: 15 miles , 24 km
Cloud details: Partly cloudy 25000 ft
2017/06/28 01:45 KGYY 280145Z 00000KT 15SM SCT250 18/09 A3004
KIKK - Kankakee, Illinois, USA
Distance from station: SSE 36mi, 58km
Updated: Tue, 27-Jun-2017 8:15pm CDT
Clear
Clear
 Wind from calm
Wind: Calm
Temperature: 68°F , 20°C
Dew Point: 46°F , 8°C
Humidity: 46%
Barometer: 30.05 inHg , 1017.6 hPa
Clouds: Clear
Visibility: 10 miles , 16 km
2017/06/28 01:15 KIKK 280115Z AUTO 00000KT 10SM CLR 20/08 A3005 RMK AO2 T02040082
 
KDKB - De Kalb, Illinois, USA
Distance from station: NW 40mi, 65km
Updated: Tue, 27-Jun-2017 8:15pm CDT
Clear
Clear
 Wind from S
Wind: S 8 mph , 13 km/h
Temperature: 66°F , 19°C
Dew Point: 50°F , 10°C
Humidity: 56%
Barometer: 30.03 inHg , 1016.9 hPa
Clouds: Clear
Visibility: 10 miles , 16 km
2017/06/28 01:15 KDKB 280115Z AUTO 19007KT 10SM CLR 19/10 A3003 RMK AO2 T01870095
KPWK - Palwaukee, Illinois, USA
Distance from station: NNE 41mi, 65km
Updated: Tue, 27-Jun-2017 7:52pm CDT
Clear
Clear
 Wind from ESE
Wind: ESE 9 mph , 15 km/h
Temperature: 70°F , 21°C
Dew Point: 48°F , 9°C
Humidity: 46%
Barometer: 30.03 inHg , 1016.9 hPa
Clouds: Clear
Visibility: 10 miles , 16 km
2017/06/28 00:52 KPWK 280052Z 12008KT 10SM CLR 21/09 A3003 RMK AO2 SLP167 T02110094